createdAt,value
2019-02-23T00:00:44.417Z,2.07
2019-02-23T00:03:11.112Z,2.30
2019-02-23T00:05:37.441Z,2.60
2019-02-23T00:08:04.176Z,2.20
2019-02-23T00:10:30.223Z,1.67
2019-02-23T00:12:56.272Z,1.97
2019-02-23T00:15:22.348Z,2.17
2019-02-23T00:17:48.403Z,2.10
2019-02-23T00:20:15.211Z,3.50
2019-02-23T00:22:41.293Z,2.33
2019-02-23T00:25:07.972Z,2.00
2019-02-23T00:27:34.054Z,2.60
2019-02-23T00:30:00.480Z,1.90
2019-02-23T00:32:27.271Z,2.17
2019-02-23T00:34:53.707Z,2.30
2019-02-23T00:37:20.033Z,3.13
2019-02-23T00:39:46.320Z,2.20
2019-02-23T00:42:12.396Z,2.30
2019-02-23T00:44:38.442Z,1.97
2019-02-23T00:47:05.152Z,2.00
2019-02-23T00:49:36.324Z,1.83
2019-02-23T00:51:59.147Z,2.13
2019-02-23T00:54:25.469Z,2.07
2019-02-23T00:56:51.795Z,2.37
2019-02-23T00:59:17.840Z,2.40
2019-02-23T01:01:44.252Z,2.67
2019-02-23T01:04:10.615Z,2.60
2019-02-23T01:06:37.341Z,2.27
2019-02-23T01:09:04.663Z,2.40
2019-02-23T01:11:31.107Z,1.80
2019-02-23T01:13:57.435Z,2.07
2019-02-23T01:16:24.177Z,2.10
2019-02-23T01:18:50.253Z,2.27
2019-02-23T01:21:16.296Z,2.33
2019-02-23T01:23:42.659Z,2.33
2019-02-23T01:26:09.187Z,2.13
2019-02-23T01:28:35.525Z,2.30
2019-02-23T01:31:01.975Z,2.10
2019-02-23T01:33:28.024Z,2.30
2019-02-23T01:35:54.711Z,2.40
2019-02-23T01:38:21.133Z,2.70
2019-02-23T01:40:47.341Z,2.40
2019-02-23T01:43:13.479Z,2.57
2019-02-23T01:45:42.297Z,3.40
2019-02-23T01:48:07.791Z,2.80
2019-02-23T01:50:33.886Z,3.20
2019-02-23T01:53:00.250Z,3.90
2019-02-23T01:55:26.583Z,2.43
2019-02-23T01:57:53.016Z,2.30
2019-02-23T02:00:19.196Z,3.23
2019-02-23T02:02:47.256Z,2.20
2019-02-23T02:05:14.831Z,2.50
2019-02-23T02:07:41.195Z,2.93
2019-02-23T02:10:09.653Z,2.67
2019-02-23T02:12:37.339Z,7.10
2019-02-23T02:15:07.220Z,2.73
2019-02-23T02:17:33.594Z,2.70
2019-02-23T02:20:10.092Z,2.27
2019-02-23T02:22:27.668Z,2.50
2019-02-23T02:24:54.114Z,2.77
2019-02-23T02:27:20.183Z,2.73
2019-02-23T02:29:46.596Z,2.77
2019-02-23T02:32:13.040Z,2.60
2019-02-23T02:34:39.427Z,2.20
2019-02-23T02:37:05.500Z,2.30
2019-02-23T02:39:31.576Z,2.43
2019-02-23T02:41:57.904Z,2.80
2019-02-23T02:44:24.235Z,2.30
2019-02-23T02:46:50.316Z,2.53
2019-02-23T02:49:16.359Z,2.77
2019-02-23T02:51:42.716Z,3.17
2019-02-23T02:54:08.792Z,2.77
2019-02-23T02:56:35.481Z,2.70
2019-02-23T02:59:01.527Z,2.80
2019-02-23T03:01:27.929Z,2.93
2019-02-23T03:03:54.668Z,2.40
2019-02-23T03:06:20.743Z,3.10
2019-02-23T03:08:47.064Z,3.03
2019-02-23T03:11:13.108Z,2.53
2019-02-23T03:13:39.155Z,2.70
2019-02-23T03:16:05.237Z,3.70
2019-02-23T03:18:31.280Z,2.83
2019-02-23T03:20:57.336Z,3.30
2019-02-23T03:23:23.416Z,3.43
2019-02-23T03:25:49.796Z,2.90
2019-02-23T03:28:15.867Z,3.17
2019-02-23T03:30:41.926Z,3.87
2019-02-23T03:33:08.336Z,3.50
2019-02-23T03:35:34.703Z,2.90
2019-02-23T03:38:01.033Z,3.70
2019-02-23T03:40:27.080Z,3.20
2019-02-23T03:42:53.487Z,3.30
2019-02-23T03:45:19.536Z,3.70
2019-02-23T03:47:45.585Z,3.40
2019-02-23T03:50:11.673Z,3.87
2019-02-23T03:52:37.724Z,3.40
2019-02-23T03:55:04.610Z,3.63
2019-02-23T03:57:32.200Z,3.10
2019-02-23T03:59:58.284Z,3.20
2019-02-23T04:02:24.343Z,3.30
2019-02-23T04:04:50.399Z,3.63
2019-02-23T04:07:16.492Z,3.30
2019-02-23T04:09:42.549Z,2.93
2019-02-23T04:12:08.966Z,3.47
2019-02-23T04:14:35.375Z,3.60
2019-02-23T04:17:01.411Z,3.70
2019-02-23T04:19:27.824Z,3.40
2019-02-23T04:21:53.871Z,3.60
2019-02-23T04:24:19.917Z,3.70
2019-02-23T04:26:46.304Z,3.90
2019-02-23T04:29:12.719Z,3.70
2019-02-23T04:31:38.789Z,3.90
2019-02-23T04:34:05.089Z,3.20
2019-02-23T04:36:31.141Z,4.37
2019-02-23T04:38:57.211Z,3.50
2019-02-23T04:41:23.579Z,3.60
2019-02-23T04:43:49.651Z,3.37
2019-02-23T04:46:15.699Z,3.93
2019-02-23T04:48:42.115Z,3.53
2019-02-23T04:51:14.260Z,4.40
2019-02-23T04:53:36.421Z,3.10
2019-02-23T04:56:03.898Z,4.13
2019-02-23T04:58:29.975Z,4.13
2019-02-23T05:00:56.384Z,4.23
2019-02-23T05:03:22.436Z,3.73
2019-02-23T05:05:48.810Z,3.97
2019-02-23T05:08:14.880Z,5.10
2019-02-23T05:10:40.957Z,3.87
2019-02-23T05:13:07.015Z,4.60
2019-02-23T05:15:33.326Z,4.43
2019-02-23T05:17:59.757Z,3.80
2019-02-23T05:20:26.064Z,4.47
2019-02-23T05:22:52.396Z,3.90
2019-02-23T05:25:18.449Z,4.23
2019-02-23T05:27:44.750Z,4.20
2019-02-23T05:30:11.929Z,4.00
2019-02-23T05:32:38.333Z,4.20
2019-02-23T05:35:08.042Z,4.63
2019-02-23T05:37:34.117Z,4.00
2019-02-23T05:40:00.330Z,4.73
2019-02-23T05:42:27.227Z,4.60
2019-02-23T05:44:53.313Z,3.90
2019-02-23T05:47:19.359Z,4.50
2019-02-23T05:49:45.413Z,4.70
2019-02-23T05:52:11.872Z,4.30
2019-02-23T05:54:38.165Z,4.83
2019-02-23T05:57:04.610Z,4.07
2019-02-23T05:59:31.023Z,4.23
2019-02-23T06:01:57.348Z,4.90
2019-02-23T06:04:23.694Z,4.20
2019-02-23T06:06:50.016Z,4.67
2019-02-23T06:09:16.098Z,4.77
2019-02-23T06:11:42.176Z,4.93
2019-02-23T06:14:08.496Z,4.20
2019-02-23T06:16:34.581Z,4.77
2019-02-23T06:19:00.658Z,4.20
2019-02-23T06:21:27.140Z,4.90
2019-02-23T06:23:53.221Z,4.07
2019-02-23T06:26:19.304Z,4.33
2019-02-23T06:28:45.439Z,4.23
2019-02-23T06:31:11.894Z,4.20
2019-02-23T06:33:37.945Z,4.03
2019-02-23T06:36:04.001Z,3.93
2019-02-23T06:38:30.399Z,4.40
2019-02-23T06:40:56.693Z,4.40
2019-02-23T06:43:23.020Z,4.17
2019-02-23T06:45:49.132Z,3.90
2019-02-23T06:48:15.472Z,4.17
2019-02-23T06:50:41.525Z,4.23
2019-02-23T06:53:07.965Z,4.37
2019-02-23T06:55:34.378Z,3.90
2019-02-23T06:58:00.424Z,3.80
2019-02-23T07:00:26.551Z,4.33
2019-02-23T07:02:52.592Z,3.77
2019-02-23T07:05:18.973Z,4.10
2019-02-23T07:07:45.416Z,4.20
2019-02-23T07:10:13.878Z,3.73
2019-02-23T07:12:39.960Z,3.40
2019-02-23T07:15:08.544Z,3.90
2019-02-23T07:17:34.939Z,4.13
2019-02-23T07:20:01.061Z,3.57
2019-02-23T07:22:27.132Z,4.00
2019-02-23T07:24:53.188Z,3.57
2019-02-23T07:27:19.632Z,3.60
2019-02-23T07:29:45.685Z,4.00
2019-02-23T07:32:11.817Z,3.70
2019-02-23T07:34:37.891Z,3.80
2019-02-23T07:37:04.306Z,4.00
2019-02-23T07:39:31.067Z,4.10
2019-02-23T07:41:57.118Z,3.80
2019-02-23T07:44:23.159Z,3.80
2019-02-23T07:46:49.544Z,3.70
2019-02-23T07:49:15.591Z,4.23
2019-02-23T07:51:41.765Z,3.67
2019-02-23T07:54:08.121Z,3.60
2019-02-23T07:56:35.194Z,3.40
2019-02-23T07:59:01.448Z,4.40
2019-02-23T08:01:27.865Z,9.40
2019-02-23T08:03:54.280Z,13.97
2019-02-23T08:06:20.397Z,9.53
2019-02-23T08:08:46.812Z,7.80
2019-02-23T08:11:12.984Z,8.67
2019-02-23T08:13:40.675Z,7.23
2019-02-23T08:16:07.348Z,8.67
2019-02-23T08:18:33.816Z,6.57
2019-02-23T08:20:59.923Z,4.80
2019-02-23T08:23:26.328Z,6.83
2019-02-23T08:25:52.376Z,4.57
2019-02-23T08:28:18.481Z,7.83
2019-02-23T08:30:45.238Z,5.10
2019-02-23T08:33:11.656Z,4.97
2019-02-23T08:35:37.769Z,4.40
2019-02-23T08:38:04.105Z,4.97
2019-02-23T08:40:30.575Z,4.70
2019-02-23T08:42:56.683Z,5.43
2019-02-23T08:45:22.728Z,4.23
2019-02-23T08:47:49.115Z,4.23
2019-02-23T08:50:15.549Z,3.90
2019-02-23T08:52:49.378Z,4.00
2019-02-23T08:55:10.455Z,6.43
2019-02-23T08:57:36.867Z,4.23
2019-02-23T09:00:07.015Z,4.20
2019-02-23T09:02:33.119Z,4.47
2019-02-23T09:04:59.468Z,4.60
2019-02-23T09:07:25.559Z,3.80
2019-02-23T09:09:51.923Z,3.57
2019-02-23T09:12:18.355Z,4.23
2019-02-23T09:14:44.405Z,4.17
2019-02-23T09:17:10.810Z,3.40
2019-02-23T09:19:36.852Z,3.70
2019-02-23T09:22:03.323Z,4.00
2019-02-23T09:24:29.739Z,4.00
2019-02-23T09:26:55.782Z,4.37
2019-02-23T09:29:21.881Z,3.53
2019-02-23T09:31:47.976Z,3.97
2019-02-23T09:34:14.033Z,4.60
2019-02-23T09:36:40.075Z,3.70
2019-02-23T09:39:06.269Z,3.53
2019-02-23T09:41:32.320Z,3.33
2019-02-23T09:43:58.424Z,3.03
2019-02-23T09:46:24.468Z,3.90
2019-02-23T09:48:50.659Z,3.20
2019-02-23T09:51:16.716Z,3.77
2019-02-23T09:53:42.763Z,3.67
2019-02-23T09:56:09.235Z,3.40
2019-02-23T09:58:35.549Z,3.63
2019-02-23T10:01:01.890Z,3.43
2019-02-23T10:03:28.059Z,3.70
2019-02-23T10:05:54.099Z,2.87
2019-02-23T10:08:20.456Z,2.80
2019-02-23T10:10:46.560Z,3.17
2019-02-23T10:13:13.323Z,2.93
2019-02-23T10:15:39.364Z,2.97
2019-02-23T10:18:05.439Z,3.27
2019-02-23T10:20:31.504Z,2.93
2019-02-23T10:22:57.586Z,3.10
2019-02-23T10:25:24.000Z,3.10
2019-02-23T10:27:50.381Z,2.47
2019-02-23T10:30:16.431Z,2.93
2019-02-23T10:32:42.731Z,3.27
2019-02-23T10:35:11.018Z,2.53
2019-02-23T10:37:37.743Z,3.23
2019-02-23T10:40:07.593Z,2.50
2019-02-23T10:42:34.017Z,2.77
2019-02-23T10:45:00.423Z,2.60
2019-02-23T10:47:26.470Z,3.00
2019-02-23T10:49:52.519Z,2.20
2019-02-23T10:52:18.615Z,2.87
2019-02-23T10:54:47.114Z,2.47
2019-02-23T10:57:13.248Z,3.13
2019-02-23T10:59:39.692Z,2.90
2019-02-23T11:02:06.060Z,2.87
2019-02-23T11:04:32.397Z,2.60
2019-02-23T11:06:58.504Z,3.20
2019-02-23T11:09:29.559Z,2.60
2019-02-23T11:11:55.611Z,2.80
2019-02-23T11:14:21.753Z,3.00
2019-02-23T11:16:47.835Z,2.20
2019-02-23T11:19:13.882Z,2.57
2019-02-23T11:21:40.368Z,3.27
2019-02-23T11:24:06.444Z,2.80
2019-02-23T11:26:32.492Z,4.00
2019-02-23T11:28:58.868Z,3.10
2019-02-23T11:31:25.281Z,2.63
2019-02-23T11:33:51.696Z,2.97
2019-02-23T11:36:17.803Z,2.83
2019-02-23T11:38:43.852Z,2.80
2019-02-23T11:41:09.920Z,3.07
2019-02-23T11:43:36.023Z,3.73
2019-02-23T11:46:02.356Z,2.93
2019-02-23T11:48:28.437Z,2.57
2019-02-23T11:50:54.506Z,2.90
2019-02-23T11:53:20.556Z,2.93
2019-02-23T11:55:46.652Z,2.50
2019-02-23T11:58:12.699Z,2.87
2019-02-23T12:00:38.743Z,2.43
2019-02-23T12:03:04.845Z,3.27
2019-02-23T12:05:30.902Z,4.23
2019-02-23T12:07:56.948Z,2.73
2019-02-23T12:10:23.301Z,4.00
2019-02-23T12:12:49.348Z,5.43
2019-02-23T12:15:15.830Z,2.57
2019-02-23T12:17:41.912Z,2.60
2019-02-23T12:20:09.943Z,2.47
2019-02-23T12:22:36.005Z,2.80
2019-02-23T12:25:03.587Z,2.20
2019-02-23T12:27:29.635Z,3.20
2019-02-23T12:29:55.981Z,2.43
2019-02-23T12:32:22.072Z,1.77
2019-02-23T12:34:48.483Z,5.00
2019-02-23T12:37:14.528Z,2.40
2019-02-23T12:39:40.608Z,2.50
2019-02-23T12:42:06.652Z,3.73
2019-02-23T12:44:32.752Z,2.63
2019-02-23T12:46:59.167Z,2.10
2019-02-23T12:49:25.259Z,2.43
2019-02-23T12:51:51.619Z,2.77
2019-02-23T12:54:17.947Z,2.63
2019-02-23T12:56:43.997Z,1.90
2019-02-23T12:59:10.300Z,2.30
2019-02-23T13:01:37.040Z,1.87
2019-02-23T13:04:03.368Z,2.03
2019-02-23T13:06:30.313Z,2.13
2019-02-23T13:09:17.844Z,2.30
2019-02-23T13:11:50.461Z,2.20
2019-02-23T13:14:29.418Z,2.07
2019-02-23T13:17:11.647Z,2.03
2019-02-23T13:20:07.158Z,2.10
2019-02-23T13:22:52.380Z,2.07
2019-02-23T13:25:31.571Z,2.30
2019-02-23T13:28:01.451Z,2.70
2019-02-23T13:30:40.348Z,2.07
2019-02-23T13:33:16.057Z,1.80
2019-02-23T13:35:55.933Z,2.03
2019-02-23T13:38:37.526Z,2.07
2019-02-23T13:41:19.380Z,2.00
2019-02-23T13:44:04.487Z,1.93
2019-02-23T13:46:37.415Z,1.97
2019-02-23T13:49:16.233Z,2.30
2019-02-23T13:52:02.644Z,2.07
2019-02-23T13:54:38.836Z,1.87
2019-02-23T13:57:16.132Z,2.30
2019-02-23T13:59:50.247Z,1.93
2019-02-23T14:02:39.607Z,1.70
2019-02-23T14:05:15.577Z,1.90
2019-02-23T14:07:51.496Z,2.03
2019-02-23T14:10:42.368Z,1.90
2019-02-23T14:13:13.956Z,1.67
2019-02-23T14:15:50.051Z,2.07
2019-02-23T14:18:36.555Z,1.80
2019-02-23T14:21:24.785Z,1.73
2019-02-23T14:24:00.717Z,2.40
2019-02-23T14:26:47.356Z,1.70
2019-02-23T14:29:23.397Z,2.00
2019-02-23T14:31:59.215Z,2.43
2019-02-23T14:35:02.448Z,2.63
2019-02-23T14:37:35.087Z,1.90
2019-02-23T14:40:23.453Z,2.03
2019-02-23T14:42:56.102Z,2.10
2019-02-23T14:45:34.689Z,2.40
2019-02-23T14:48:22.898Z,2.10
2019-02-23T14:51:05.397Z,2.40
2019-02-23T14:53:47.633Z,2.10
2019-02-23T14:56:33.997Z,1.70
2019-02-23T14:59:22.117Z,2.40
2019-02-23T15:01:54.946Z,3.37
2019-02-23T15:04:30.484Z,2.10
2019-02-23T15:07:08.837Z,7.50
2019-02-23T15:09:47.723Z,3.30
2019-02-23T15:12:29.495Z,3.10
2019-02-23T15:15:11.593Z,3.60
2019-02-23T15:18:16.639Z,2.90
2019-02-23T15:20:54.527Z,2.73
2019-02-23T15:23:41.129Z,3.90
2019-02-23T15:26:30.745Z,2.43
2019-02-23T15:29:16.256Z,2.20
2019-02-23T15:32:01.768Z,2.40
2019-02-23T15:34:31.620Z,3.13
2019-02-23T15:37:16.441Z,1.90
2019-02-23T15:39:44.810Z,2.40
2019-02-23T15:42:31.248Z,2.33
2019-02-23T15:45:28.045Z,2.80
2019-02-23T15:48:00.858Z,2.77
2019-02-23T15:50:27.280Z,3.57
2019-02-23T15:52:53.512Z,2.63
2019-02-23T15:55:25.927Z,2.40
2019-02-23T15:57:47.908Z,2.50
2019-02-23T16:00:14.085Z,2.60
2019-02-23T16:02:40.345Z,1.60
2019-02-23T16:05:06.864Z,2.40
2019-02-23T16:07:33.224Z,2.00
2019-02-23T16:09:59.304Z,2.93
2019-02-23T16:12:25.991Z,2.33
2019-02-23T16:14:52.035Z,1.93
2019-02-23T16:17:18.113Z,2.13
2019-02-23T16:19:44.464Z,2.00
2019-02-23T16:22:10.653Z,2.50
2019-02-23T16:24:37.029Z,6.17
2019-02-23T16:27:03.452Z,9.10
2019-02-23T16:29:29.868Z,121.63
2019-02-23T16:31:55.956Z,76.87
2019-02-23T16:34:22.000Z,38.50
2019-02-23T16:36:48.447Z,27.23
2019-02-23T16:39:14.927Z,24.40
2019-02-23T16:41:41.043Z,22.70
2019-02-23T16:44:07.095Z,12.70
2019-02-23T16:46:34.505Z,15.03
2019-02-23T16:49:00.839Z,11.30
2019-02-23T16:51:27.163Z,21.03
2019-02-23T16:53:53.583Z,13.37
2019-02-23T16:56:19.627Z,19.57
2019-02-23T16:58:46.357Z,19.10
2019-02-23T17:01:12.403Z,15.67
2019-02-23T17:03:38.843Z,19.27
2019-02-23T17:06:05.560Z,10.20
2019-02-23T17:08:31.884Z,13.40
2019-02-23T17:10:57.966Z,13.47
2019-02-23T17:13:24.044Z,12.80
2019-02-23T17:15:50.465Z,10.33
2019-02-23T17:18:16.505Z,11.00
2019-02-23T17:20:42.939Z,8.83
2019-02-23T17:23:09.347Z,12.53
2019-02-23T17:25:35.396Z,6.23
2019-02-23T17:28:01.478Z,11.87
2019-02-23T17:30:27.933Z,8.70
2019-02-23T17:32:53.981Z,10.30
2019-02-23T17:35:20.392Z,11.37
2019-02-23T17:37:46.712Z,7.70
2019-02-23T17:40:13.040Z,8.93
2019-02-23T17:42:39.127Z,7.33
2019-02-23T17:45:07.335Z,9.07
2019-02-23T17:47:34.297Z,5.90
2019-02-23T17:50:00.381Z,6.50
2019-02-23T17:52:26.741Z,5.87
2019-02-23T17:54:54.458Z,21.63
2019-02-23T17:57:20.679Z,17.40
2019-02-23T17:59:47.087Z,9.53
2019-02-23T18:02:13.223Z,16.63
2019-02-23T18:04:39.615Z,8.77
2019-02-23T18:07:05.949Z,5.87
2019-02-23T18:09:32.375Z,8.20
2019-02-23T18:11:58.445Z,14.20
2019-02-23T18:14:24.835Z,10.03
2019-02-23T18:16:50.916Z,6.57
2019-02-23T18:19:17.599Z,3.87
2019-02-23T18:21:43.927Z,5.07
2019-02-23T18:24:10.376Z,4.43
2019-02-23T18:26:36.420Z,6.20
2019-02-23T18:29:02.472Z,5.13
2019-02-23T18:31:28.835Z,12.37
2019-02-23T18:33:54.884Z,6.83
2019-02-23T18:36:20.928Z,10.70
2019-02-23T18:38:47.009Z,5.90
2019-02-23T18:41:13.381Z,9.70
2019-02-23T18:43:39.511Z,5.27
2019-02-23T18:46:05.559Z,6.00
2019-02-23T18:48:31.607Z,7.13
2019-02-23T18:50:57.689Z,7.80
2019-02-23T18:53:23.767Z,3.87
2019-02-23T18:55:49.868Z,7.90
2019-02-23T18:58:16.213Z,3.40
2019-02-23T19:00:42.260Z,6.93
2019-02-23T19:03:08.563Z,4.77
2019-02-23T19:05:34.649Z,3.90
2019-02-23T19:08:01.095Z,4.03
2019-02-23T19:10:27.452Z,6.37
2019-02-23T19:12:53.780Z,5.63
2019-02-23T19:15:20.235Z,6.17
2019-02-23T19:17:46.279Z,4.67
2019-02-23T19:20:13.323Z,2.77
2019-02-23T19:22:39.734Z,9.40
2019-02-23T19:25:08.079Z,5.80
2019-02-23T19:27:34.491Z,4.30
2019-02-23T19:30:00.860Z,3.07
2019-02-23T19:32:27.020Z,3.53
2019-02-23T19:34:53.411Z,5.77
2019-02-23T19:37:19.456Z,3.87
2019-02-23T19:39:45.541Z,3.30
2019-02-23T19:42:11.889Z,4.03
2019-02-23T19:44:37.935Z,3.27
2019-02-23T19:47:05.216Z,2.70
2019-02-23T19:49:31.264Z,5.10
2019-02-23T19:51:57.405Z,2.80
2019-02-23T19:54:23.487Z,8.10
2019-02-23T19:56:49.664Z,4.60
2019-02-23T19:59:16.122Z,3.00
2019-02-23T20:01:42.163Z,8.97
2019-02-23T20:04:08.311Z,2.73
2019-02-23T20:06:34.389Z,2.80
2019-02-23T20:09:00.432Z,4.03
2019-02-23T20:11:26.511Z,2.67
2019-02-23T20:13:52.565Z,2.63
2019-02-23T20:16:19.787Z,4.07
2019-02-23T20:18:45.882Z,4.07
2019-02-23T20:21:12.048Z,4.60
2019-02-23T20:23:38.208Z,2.50
2019-02-23T20:26:04.596Z,2.63
2019-02-23T20:28:30.927Z,2.07
2019-02-23T20:30:57.123Z,2.73
2019-02-23T20:33:23.159Z,2.50
2019-02-23T20:35:49.572Z,2.90
2019-02-23T20:38:15.748Z,3.07
2019-02-23T20:40:41.828Z,2.67
2019-02-23T20:43:07.879Z,3.10
2019-02-23T20:45:34.208Z,2.93
2019-02-23T20:48:00.752Z,2.37
2019-02-23T20:50:26.801Z,4.83
2019-02-23T20:52:52.889Z,2.50
2019-02-23T20:55:18.968Z,4.13
2019-02-23T20:57:45.124Z,4.20
2019-02-23T21:00:11.688Z,2.50
2019-02-23T21:02:38.527Z,2.00
2019-02-23T21:05:08.076Z,4.90
2019-02-23T21:07:34.155Z,5.37
2019-02-23T21:10:00.305Z,2.40
2019-02-23T21:12:26.386Z,2.10
2019-02-23T21:14:52.461Z,3.50
2019-02-23T21:17:18.505Z,1.97
2019-02-23T21:19:44.877Z,6.10
2019-02-23T21:22:11.290Z,2.17
2019-02-23T21:24:37.645Z,1.67
2019-02-23T21:27:12.652Z,1.87
2019-02-23T21:29:32.044Z,2.10
2019-02-23T21:31:58.124Z,2.10
2019-02-23T21:34:24.172Z,3.50
2019-02-23T21:36:50.512Z,1.70
2019-02-23T21:39:16.960Z,2.00
2019-02-23T21:41:43.375Z,1.50
2019-02-23T21:44:09.424Z,1.80
2019-02-23T21:46:35.504Z,1.70
2019-02-23T21:49:01.551Z,3.40
2019-02-23T21:51:27.880Z,1.50
2019-02-23T21:53:54.229Z,1.57
2019-02-23T21:56:20.409Z,1.77
2019-02-23T21:58:46.462Z,2.13
2019-02-23T22:01:12.632Z,1.80
2019-02-23T22:03:38.712Z,2.00
2019-02-23T22:06:04.766Z,2.30
2019-02-23T22:08:30.840Z,2.03
2019-02-23T22:10:56.897Z,4.30
2019-02-23T22:13:23.404Z,2.00
2019-02-23T22:15:49.473Z,1.53
2019-02-23T22:18:15.520Z,1.70
2019-02-23T22:20:41.564Z,1.87
2019-02-23T22:23:07.917Z,1.33
2019-02-23T22:25:34.025Z,3.50
2019-02-23T22:28:00.093Z,1.83
2019-02-23T22:30:26.229Z,2.10
2019-02-23T22:32:52.685Z,1.33
2019-02-23T22:35:18.749Z,4.60
2019-02-23T22:37:44.939Z,1.50
2019-02-23T22:40:11.514Z,1.67
2019-02-23T22:42:37.581Z,1.87
2019-02-23T22:45:06.116Z,2.30
2019-02-23T22:47:32.155Z,1.93
2019-02-23T22:49:58.881Z,4.93
2019-02-23T22:52:24.923Z,1.50
2019-02-23T22:54:50.976Z,1.73
2019-02-23T22:57:17.055Z,1.63
2019-02-23T22:59:43.472Z,1.80
2019-02-23T23:02:10.755Z,1.50
2019-02-23T23:04:36.804Z,1.67
2019-02-23T23:07:03.183Z,1.97
2019-02-23T23:09:29.513Z,1.70
2019-02-23T23:11:55.840Z,1.50
2019-02-23T23:14:21.928Z,1.73
2019-02-23T23:16:48.218Z,2.90
2019-02-23T23:19:14.259Z,6.53
2019-02-23T23:21:40.335Z,1.87
2019-02-23T23:24:06.677Z,1.70
2019-02-23T23:26:32.754Z,3.57
2019-02-23T23:28:58.840Z,2.00
2019-02-23T23:31:25.261Z,1.50
2019-02-23T23:33:51.336Z,1.90
2019-02-23T23:36:17.379Z,1.43
2019-02-23T23:38:43.460Z,2.07
2019-02-23T23:41:09.508Z,1.60
2019-02-23T23:43:35.919Z,1.70
2019-02-23T23:46:02.372Z,2.43
2019-02-23T23:48:28.879Z,1.73
2019-02-23T23:50:55.667Z,1.97
2019-02-23T23:53:22.107Z,1.80
2019-02-23T23:55:48.447Z,1.77
2019-02-23T23:58:14.495Z,4.63
